sensor_id;sensor_type;location;lat;lon;timestamp;temperature;humidity
80216;DHT22;69532;37.974;23.708;2023-05-01T00:02:23;20.70;55.10
80216;DHT22;69532;37.974;23.708;2023-05-01T00:04:48;20.80;55.10
80216;DHT22;69532;37.974;23.708;2023-05-01T00:07:14;20.70;55.20
80216;DHT22;69532;37.974;23.708;2023-05-01T00:09:40;20.70;55.20
80216;DHT22;69532;37.974;23.708;2023-05-01T00:12:06;20.80;55.10
80216;DHT22;69532;37.974;23.708;2023-05-01T00:14:32;20.80;55.10
80216;DHT22;69532;37.974;23.708;2023-05-01T00:16:57;20.70;55.20
80216;DHT22;69532;37.974;23.708;2023-05-01T00:19:23;20.80;55.30
80216;DHT22;69532;37.974;23.708;2023-05-01T00:21:49;20.70;55.30
80216;DHT22;69532;37.974;23.708;2023-05-01T00:24:16;20.80;55.50
80216;DHT22;69532;37.974;23.708;2023-05-01T00:26:43;20.80;54.90
80216;DHT22;69532;37.974;23.708;2023-05-01T00:29:09;20.80;53.50
80216;DHT22;69532;37.974;23.708;2023-05-01T00:31:35;20.70;53.10
80216;DHT22;69532;37.974;23.708;2023-05-01T00:34:01;20.70;53.20
80216;DHT22;69532;37.974;23.708;2023-05-01T00:36:27;20.80;53.00
80216;DHT22;69532;37.974;23.708;2023-05-01T00:38:52;20.70;52.90
80216;DHT22;69532;37.974;23.708;2023-05-01T00:41:18;20.70;53.10
80216;DHT22;69532;37.974;23.708;2023-05-01T00:43:44;20.70;53.20
80216;DHT22;69532;37.974;23.708;2023-05-01T00:46:09;20.70;53.00
80216;DHT22;69532;37.974;23.708;2023-05-01T00:48:35;20.70;52.60
80216;DHT22;69532;37.974;23.708;2023-05-01T00:51:04;20.60;52.20
80216;DHT22;69532;37.974;23.708;2023-05-01T00:53:34;20.60;51.80
80216;DHT22;69532;37.974;23.708;2023-05-01T00:56:01;20.60;52.00
80216;DHT22;69532;37.974;23.708;2023-05-01T00:58:27;20.60;51.50
80216;DHT22;69532;37.974;23.708;2023-05-01T01:00:54;20.60;51.40
80216;DHT22;69532;37.974;23.708;2023-05-01T01:03:20;20.50;51.30
80216;DHT22;69532;37.974;23.708;2023-05-01T01:05:55;20.50;51.20
80216;DHT22;69532;37.974;23.708;2023-05-01T01:11:35;20.50;51.50
80216;DHT22;69532;37.974;23.708;2023-05-01T01:14:18;20.50;51.50
80216;DHT22;69532;37.974;23.708;2023-05-01T01:22:09;20.50;51.50
80216;DHT22;69532;37.974;23.708;2023-05-01T01:35:20;20.50;51.30
80216;DHT22;69532;37.974;23.708;2023-05-01T01:38:04;20.50;51.20
80216;DHT22;69532;37.974;23.708;2023-05-01T01:40:35;20.50;51.00
80216;DHT22;69532;37.974;23.708;2023-05-01T01:43:05;20.50;51.40
80216;DHT22;69532;37.974;23.708;2023-05-01T01:45:45;20.50;51.30
80216;DHT22;69532;37.974;23.708;2023-05-01T01:48:16;20.50;51.10
80216;DHT22;69532;37.974;23.708;2023-05-01T01:50:44;20.50;51.00
80216;DHT22;69532;37.974;23.708;2023-05-01T01:53:13;20.50;50.90
80216;DHT22;69532;37.974;23.708;2023-05-01T01:55:43;20.50;51.00
80216;DHT22;69532;37.974;23.708;2023-05-01T01:58:10;20.50;50.70
80216;DHT22;69532;37.974;23.708;2023-05-01T02:00:36;20.50;50.60
80216;DHT22;69532;37.974;23.708;2023-05-01T02:03:05;20.50;50.70
80216;DHT22;69532;37.974;23.708;2023-05-01T02:05:32;20.50;50.70
80216;DHT22;69532;37.974;23.708;2023-05-01T02:07:58;20.60;50.50
80216;DHT22;69532;37.974;23.708;2023-05-01T02:10:26;20.60;50.60
80216;DHT22;69532;37.974;23.708;2023-05-01T02:12:54;20.60;50.70
80216;DHT22;69532;37.974;23.708;2023-05-01T02:15:21;20.60;50.70
80216;DHT22;69532;37.974;23.708;2023-05-01T02:17:48;20.60;50.60
80216;DHT22;69532;37.974;23.708;2023-05-01T02:20:16;20.60;50.60
80216;DHT22;69532;37.974;23.708;2023-05-01T02:22:44;20.60;50.50
80216;DHT22;69532;37.974;23.708;2023-05-01T02:25:12;20.60;50.30
80216;DHT22;69532;37.974;23.708;2023-05-01T02:27:45;20.60;50.20
80216;DHT22;69532;37.974;23.708;2023-05-01T02:30:11;20.60;50.20
80216;DHT22;69532;37.974;23.708;2023-05-01T02:32:37;20.60;50.10
80216;DHT22;69532;37.974;23.708;2023-05-01T02:35:03;20.60;50.20
80216;DHT22;69532;37.974;23.708;2023-05-01T02:37:29;20.60;50.20
80216;DHT22;69532;37.974;23.708;2023-05-01T02:39:56;20.60;51.30
80216;DHT22;69532;37.974;23.708;2023-05-01T02:42:23;20.60;50.30
80216;DHT22;69532;37.974;23.708;2023-05-01T02:44:56;20.60;50.30
80216;DHT22;69532;37.974;23.708;2023-05-01T02:47:22;20.50;50.40
80216;DHT22;69532;37.974;23.708;2023-05-01T02:49:48;20.50;50.50
80216;DHT22;69532;37.974;23.708;2023-05-01T02:52:18;20.60;50.20
80216;DHT22;69532;37.974;23.708;2023-05-01T02:54:44;20.60;50.20
80216;DHT22;69532;37.974;23.708;2023-05-01T02:57:11;20.60;50.20
80216;DHT22;69532;37.974;23.708;2023-05-01T02:59:37;20.60;50.20
80216;DHT22;69532;37.974;23.708;2023-05-01T03:02:03;20.60;50.20
80216;DHT22;69532;37.974;23.708;2023-05-01T03:04:29;20.60;50.10
80216;DHT22;69532;37.974;23.708;2023-05-01T03:06:55;20.60;50.10
80216;DHT22;69532;37.974;23.708;2023-05-01T03:09:21;20.60;50.00
80216;DHT22;69532;37.974;23.708;2023-05-01T03:11:47;20.60;49.90
80216;DHT22;69532;37.974;23.708;2023-05-01T03:14:13;20.60;50.10
80216;DHT22;69532;37.974;23.708;2023-05-01T03:16:39;20.60;50.20
80216;DHT22;69532;37.974;23.708;2023-05-01T03:19:05;20.60;50.20
80216;DHT22;69532;37.974;23.708;2023-05-01T03:21:31;20.50;50.20
80216;DHT22;69532;37.974;23.708;2023-05-01T03:23:58;20.50;50.10
80216;DHT22;69532;37.974;23.708;2023-05-01T03:26:24;20.50;50.20
80216;DHT22;69532;37.974;23.708;2023-05-01T03:28:50;20.60;50.30
80216;DHT22;69532;37.974;23.708;2023-05-01T03:31:16;20.60;50.30
80216;DHT22;69532;37.974;23.708;2023-05-01T03:33:42;20.50;50.30
80216;DHT22;69532;37.974;23.708;2023-05-01T03:36:07;20.60;50.30
80216;DHT22;69532;37.974;23.708;2023-05-01T03:38:36;20.60;50.40
80216;DHT22;69532;37.974;23.708;2023-05-01T03:41:01;20.60;50.40
80216;DHT22;69532;37.974;23.708;2023-05-01T03:43:29;20.50;50.40
80216;DHT22;69532;37.974;23.708;2023-05-01T03:45:55;20.50;50.50
80216;DHT22;69532;37.974;23.708;2023-05-01T03:48:22;20.50;50.60
80216;DHT22;69532;37.974;23.708;2023-05-01T03:50:47;20.50;50.60
80216;DHT22;69532;37.974;23.708;2023-05-01T03:53:13;20.50;50.50
80216;DHT22;69532;37.974;23.708;2023-05-01T03:55:39;20.50;50.50
80216;DHT22;69532;37.974;23.708;2023-05-01T03:58:05;20.50;50.50
80216;DHT22;69532;37.974;23.708;2023-05-01T04:00:32;20.50;50.60
80216;DHT22;69532;37.974;23.708;2023-05-01T04:02:58;20.50;50.60
80216;DHT22;69532;37.974;23.708;2023-05-01T04:05:24;20.50;50.50
80216;DHT22;69532;37.974;23.708;2023-05-01T04:07:50;20.60;50.60
80216;DHT22;69532;37.974;23.708;2023-05-01T04:10:16;20.60;50.60
80216;DHT22;69532;37.974;23.708;2023-05-01T04:12:42;20.50;50.50
80216;DHT22;69532;37.974;23.708;2023-05-01T04:15:08;20.60;50.60
80216;DHT22;69532;37.974;23.708;2023-05-01T04:17:35;20.60;50.80
80216;DHT22;69532;37.974;23.708;2023-05-01T04:20:01;20.60;50.60
80216;DHT22;69532;37.974;23.708;2023-05-01T04:22:29;20.60;50.80
80216;DHT22;69532;37.974;23.708;2023-05-01T04:24:55;20.60;50.90
80216;DHT22;69532;37.974;23.708;2023-05-01T04:27:20;20.60;50.90
80216;DHT22;69532;37.974;23.708;2023-05-01T04:29:46;20.60;50.90
80216;DHT22;69532;37.974;23.708;2023-05-01T04:32:12;20.60;51.10
80216;DHT22;69532;37.974;23.708;2023-05-01T04:34:38;20.60;51.00
80216;DHT22;69532;37.974;23.708;2023-05-01T04:37:03;20.50;50.90
80216;DHT22;69532;37.974;23.708;2023-05-01T04:39:32;20.60;50.80
80216;DHT22;69532;37.974;23.708;2023-05-01T04:41:57;20.50;50.90
80216;DHT22;69532;37.974;23.708;2023-05-01T04:44:23;20.50;51.20
80216;DHT22;69532;37.974;23.708;2023-05-01T04:46:49;20.60;51.10
80216;DHT22;69532;37.974;23.708;2023-05-01T04:49:15;20.60;51.10
80216;DHT22;69532;37.974;23.708;2023-05-01T04:51:40;20.60;51.00
80216;DHT22;69532;37.974;23.708;2023-05-01T04:54:06;20.60;51.00
80216;DHT22;69532;37.974;23.708;2023-05-01T04:56:32;20.70;52.00
80216;DHT22;69532;37.974;23.708;2023-05-01T04:58:58;20.70;50.80
80216;DHT22;69532;37.974;23.708;2023-05-01T05:01:23;20.70;50.90
80216;DHT22;69532;37.974;23.708;2023-05-01T05:03:49;20.70;51.30
80216;DHT22;69532;37.974;23.708;2023-05-01T05:06:15;20.70;51.10
80216;DHT22;69532;37.974;23.708;2023-05-01T05:08:40;20.70;51.30
80216;DHT22;69532;37.974;23.708;2023-05-01T05:11:06;20.70;51.10
80216;DHT22;69532;37.974;23.708;2023-05-01T05:13:32;20.70;51.40
80216;DHT22;69532;37.974;23.708;2023-05-01T05:15:58;20.70;52.00
80216;DHT22;69532;37.974;23.708;2023-05-01T05:18:24;20.70;51.70
80216;DHT22;69532;37.974;23.708;2023-05-01T05:20:49;20.70;52.10
80216;DHT22;69532;37.974;23.708;2023-05-01T05:23:15;20.70;52.30
80216;DHT22;69532;37.974;23.708;2023-05-01T05:25:41;20.70;52.50
80216;DHT22;69532;37.974;23.708;2023-05-01T05:28:06;20.70;53.00
80216;DHT22;69532;37.974;23.708;2023-05-01T05:30:32;20.70;53.10
80216;DHT22;69532;37.974;23.708;2023-05-01T05:32:58;20.70;53.60
80216;DHT22;69532;37.974;23.708;2023-05-01T05:35:24;20.70;53.20
80216;DHT22;69532;37.974;23.708;2023-05-01T05:37:50;20.70;53.30
80216;DHT22;69532;37.974;23.708;2023-05-01T05:40:16;20.70;53.20
80216;DHT22;69532;37.974;23.708;2023-05-01T05:42:42;20.70;54.00
80216;DHT22;69532;37.974;23.708;2023-05-01T05:45:08;20.80;54.20
80216;DHT22;69532;37.974;23.708;2023-05-01T05:47:34;20.80;53.50
80216;DHT22;69532;37.974;23.708;2023-05-01T05:49:59;20.80;53.60
80216;DHT22;69532;37.974;23.708;2023-05-01T05:52:25;20.80;53.60
80216;DHT22;69532;37.974;23.708;2023-05-01T05:54:51;20.80;53.90
80216;DHT22;69532;37.974;23.708;2023-05-01T05:57:16;20.80;54.20
80216;DHT22;69532;37.974;23.708;2023-05-01T05:59:42;20.90;55.10
80216;DHT22;69532;37.974;23.708;2023-05-01T06:02:09;20.90;55.60
80216;DHT22;69532;37.974;23.708;2023-05-01T06:04:35;20.90;55.50
80216;DHT22;69532;37.974;23.708;2023-05-01T06:07:00;20.90;55.60
80216;DHT22;69532;37.974;23.708;2023-05-01T06:09:26;20.90;55.30
80216;DHT22;69532;37.974;23.708;2023-05-01T06:11:52;20.90;54.80
80216;DHT22;69532;37.974;23.708;2023-05-01T06:14:17;20.90;55.00
80216;DHT22;69532;37.974;23.708;2023-05-01T06:16:43;20.90;54.90
80216;DHT22;69532;37.974;23.708;2023-05-01T06:19:09;21.00;55.20
80216;DHT22;69532;37.974;23.708;2023-05-01T06:21:36;21.00;55.10
80216;DHT22;69532;37.974;23.708;2023-05-01T06:24:02;21.00;55.50
80216;DHT22;69532;37.974;23.708;2023-05-01T06:26:28;21.00;55.50
80216;DHT22;69532;37.974;23.708;2023-05-01T06:28:53;21.10;55.30
80216;DHT22;69532;37.974;23.708;2023-05-01T06:31:19;21.10;55.10
80216;DHT22;69532;37.974;23.708;2023-05-01T06:33:45;21.10;55.10
80216;DHT22;69532;37.974;23.708;2023-05-01T06:36:11;21.10;54.70
80216;DHT22;69532;37.974;23.708;2023-05-01T06:38:37;21.20;55.00
80216;DHT22;69532;37.974;23.708;2023-05-01T06:41:05;21.20;54.80
80216;DHT22;69532;37.974;23.708;2023-05-01T06:43:31;21.20;54.60
80216;DHT22;69532;37.974;23.708;2023-05-01T06:45:57;21.20;54.80
80216;DHT22;69532;37.974;23.708;2023-05-01T06:48:23;21.20;54.80
80216;DHT22;69532;37.974;23.708;2023-05-01T06:50:49;21.30;54.80
80216;DHT22;69532;37.974;23.708;2023-05-01T06:53:15;21.30;54.40
80216;DHT22;69532;37.974;23.708;2023-05-01T06:55:40;21.30;54.80
80216;DHT22;69532;37.974;23.708;2023-05-01T06:58:06;21.30;54.60
80216;DHT22;69532;37.974;23.708;2023-05-01T07:00:35;21.40;54.90
80216;DHT22;69532;37.974;23.708;2023-05-01T07:03:01;21.40;54.70
80216;DHT22;69532;37.974;23.708;2023-05-01T07:05:28;21.40;54.50
80216;DHT22;69532;37.974;23.708;2023-05-01T07:07:54;21.40;54.40
80216;DHT22;69532;37.974;23.708;2023-05-01T07:10:20;21.40;54.60
80216;DHT22;69532;37.974;23.708;2023-05-01T07:12:46;21.50;54.30
80216;DHT22;69532;37.974;23.708;2023-05-01T07:15:11;21.50;54.20
80216;DHT22;69532;37.974;23.708;2023-05-01T07:17:40;21.60;54.10
80216;DHT22;69532;37.974;23.708;2023-05-01T07:20:06;21.60;53.70
80216;DHT22;69532;37.974;23.708;2023-05-01T07:22:32;21.70;53.80
80216;DHT22;69532;37.974;23.708;2023-05-01T07:24:58;21.70;53.60
80216;DHT22;69532;37.974;23.708;2023-05-01T07:27:26;21.70;53.50
80216;DHT22;69532;37.974;23.708;2023-05-01T07:29:54;21.70;53.30
80216;DHT22;69532;37.974;23.708;2023-05-01T07:32:21;21.80;53.20
80216;DHT22;69532;37.974;23.708;2023-05-01T07:34:46;21.80;53.00
80216;DHT22;69532;37.974;23.708;2023-05-01T07:37:12;21.90;53.00
80216;DHT22;69532;37.974;23.708;2023-05-01T07:39:38;21.90;52.40
80216;DHT22;69532;37.974;23.708;2023-05-01T07:42:03;21.90;52.40
80216;DHT22;69532;37.974;23.708;2023-05-01T07:44:29;21.90;52.30
80216;DHT22;69532;37.974;23.708;2023-05-01T07:46:58;21.90;52.20
80216;DHT22;69532;37.974;23.708;2023-05-01T07:49:26;22.00;52.30
80216;DHT22;69532;37.974;23.708;2023-05-01T07:51:53;22.00;52.00
80216;DHT22;69532;37.974;23.708;2023-05-01T07:54:20;22.00;51.60
80216;DHT22;69532;37.974;23.708;2023-05-01T07:56:47;22.00;51.60
80216;DHT22;69532;37.974;23.708;2023-05-01T07:59:14;22.10;51.60
80216;DHT22;69532;37.974;23.708;2023-05-01T08:01:39;22.10;51.50
80216;DHT22;69532;37.974;23.708;2023-05-01T08:04:05;22.10;51.60
80216;DHT22;69532;37.974;23.708;2023-05-01T08:06:32;22.10;52.40
80216;DHT22;69532;37.974;23.708;2023-05-01T08:08:57;22.20;51.80
80216;DHT22;69532;37.974;23.708;2023-05-01T08:11:24;22.10;52.30
80216;DHT22;69532;37.974;23.708;2023-05-01T08:13:51;22.20;52.70
80216;DHT22;69532;37.974;23.708;2023-05-01T08:16:17;22.20;52.40
80216;DHT22;69532;37.974;23.708;2023-05-01T08:18:44;22.20;52.40
80216;DHT22;69532;37.974;23.708;2023-05-01T08:21:10;22.20;52.40
80216;DHT22;69532;37.974;23.708;2023-05-01T08:23:36;22.20;52.30
80216;DHT22;69532;37.974;23.708;2023-05-01T08:26:02;22.20;52.30
80216;DHT22;69532;37.974;23.708;2023-05-01T08:28:28;22.30;52.40
80216;DHT22;69532;37.974;23.708;2023-05-01T08:30:54;22.20;52.60
80216;DHT22;69532;37.974;23.708;2023-05-01T08:33:19;22.30;52.70
80216;DHT22;69532;37.974;23.708;2023-05-01T08:35:45;22.30;52.70
80216;DHT22;69532;37.974;23.708;2023-05-01T08:38:11;22.30;52.80
80216;DHT22;69532;37.974;23.708;2023-05-01T08:40:37;22.40;52.70
80216;DHT22;69532;37.974;23.708;2023-05-01T08:43:03;22.40;52.80
80216;DHT22;69532;37.974;23.708;2023-05-01T08:45:34;22.40;52.60
80216;DHT22;69532;37.974;23.708;2023-05-01T08:48:07;22.40;52.60
80216;DHT22;69532;37.974;23.708;2023-05-01T08:50:35;22.40;52.50
80216;DHT22;69532;37.974;23.708;2023-05-01T08:53:04;22.40;52.30
80216;DHT22;69532;37.974;23.708;2023-05-01T08:55:31;22.40;53.20
80216;DHT22;69532;37.974;23.708;2023-05-01T08:57:58;22.40;52.80
80216;DHT22;69532;37.974;23.708;2023-05-01T09:00:24;22.50;53.50
80216;DHT22;69532;37.974;23.708;2023-05-01T09:02:50;22.40;54.20
80216;DHT22;69532;37.974;23.708;2023-05-01T09:05:20;22.50;54.30
80216;DHT22;69532;37.974;23.708;2023-05-01T09:07:47;22.50;53.90
80216;DHT22;69532;37.974;23.708;2023-05-01T09:10:14;22.50;54.20
80216;DHT22;69532;37.974;23.708;2023-05-01T09:12:41;22.50;54.20
80216;DHT22;69532;37.974;23.708;2023-05-01T09:15:10;22.50;54.20
80216;DHT22;69532;37.974;23.708;2023-05-01T09:17:36;22.50;53.80
80216;DHT22;69532;37.974;23.708;2023-05-01T09:20:03;22.60;54.00
80216;DHT22;69532;37.974;23.708;2023-05-01T09:22:32;22.60;53.40
80216;DHT22;69532;37.974;23.708;2023-05-01T09:24:59;22.60;53.70
80216;DHT22;69532;37.974;23.708;2023-05-01T09:27:33;22.60;53.50
80216;DHT22;69532;37.974;23.708;2023-05-01T09:29:59;22.60;53.20
80216;DHT22;69532;37.974;23.708;2023-05-01T09:32:26;22.60;53.10
80216;DHT22;69532;37.974;23.708;2023-05-01T09:35:07;22.70;52.90
80216;DHT22;69532;37.974;23.708;2023-05-01T09:37:34;22.70;52.80
80216;DHT22;69532;37.974;23.708;2023-05-01T09:42:29;22.70;52.80
80216;DHT22;69532;37.974;23.708;2023-05-01T09:45:00;22.70;52.80
80216;DHT22;69532;37.974;23.708;2023-05-01T09:47:27;22.70;52.60
80216;DHT22;69532;37.974;23.708;2023-05-01T09:49:54;22.70;52.40
80216;DHT22;69532;37.974;23.708;2023-05-01T09:52:30;22.70;52.70
80216;DHT22;69532;37.974;23.708;2023-05-01T09:55:24;22.70;53.00
80216;DHT22;69532;37.974;23.708;2023-05-01T09:57:49;22.70;52.70
80216;DHT22;69532;37.974;23.708;2023-05-01T10:00:16;22.70;52.40
80216;DHT22;69532;37.974;23.708;2023-05-01T10:02:44;22.70;52.90
80216;DHT22;69532;37.974;23.708;2023-05-01T10:05:11;22.70;52.30
80216;DHT22;69532;37.974;23.708;2023-05-01T10:07:37;22.80;52.30
80216;DHT22;69532;37.974;23.708;2023-05-01T10:10:19;22.80;52.20
80216;DHT22;69532;37.974;23.708;2023-05-01T10:12:46;22.80;53.10
80216;DHT22;69532;37.974;23.708;2023-05-01T10:15:12;22.80;51.90
80216;DHT22;69532;37.974;23.708;2023-05-01T10:17:39;22.80;51.60
80216;DHT22;69532;37.974;23.708;2023-05-01T10:20:06;22.80;51.70
80216;DHT22;69532;37.974;23.708;2023-05-01T10:22:33;22.80;51.40
80216;DHT22;69532;37.974;23.708;2023-05-01T10:24:59;22.90;51.20
80216;DHT22;69532;37.974;23.708;2023-05-01T10:27:25;22.90;51.10
80216;DHT22;69532;37.974;23.708;2023-05-01T10:29:54;22.80;51.00
80216;DHT22;69532;37.974;23.708;2023-05-01T10:32:20;22.90;51.20
80216;DHT22;69532;37.974;23.708;2023-05-01T10:34:58;22.90;50.80
80216;DHT22;69532;37.974;23.708;2023-05-01T10:45:41;22.90;50.40
80216;DHT22;69532;37.974;23.708;2023-05-01T10:48:07;22.80;50.50
80216;DHT22;69532;37.974;23.708;2023-05-01T10:50:33;22.90;50.80
80216;DHT22;69532;37.974;23.708;2023-05-01T10:55:49;22.80;51.30
80216;DHT22;69532;37.974;23.708;2023-05-01T11:03:57;22.80;50.50
80216;DHT22;69532;37.974;23.708;2023-05-01T11:06:24;22.80;50.70
80216;DHT22;69532;37.974;23.708;2023-05-01T11:08:50;22.80;50.00
80216;DHT22;69532;37.974;23.708;2023-05-01T11:14:01;22.80;49.60
80216;DHT22;69532;37.974;23.708;2023-05-01T11:19:57;22.80;49.90
80216;DHT22;69532;37.974;23.708;2023-05-01T11:21:55;22.80;50.30
80216;DHT22;69532;37.974;23.708;2023-05-01T11:24:30;22.80;50.50
80216;DHT22;69532;37.974;23.708;2023-05-01T11:26:57;22.80;51.10
80216;DHT22;69532;37.974;23.708;2023-05-01T11:29:32;22.80;50.50
80216;DHT22;69532;37.974;23.708;2023-05-01T11:32:00;22.80;50.20
80216;DHT22;69532;37.974;23.708;2023-05-01T11:34:26;22.70;50.30
80216;DHT22;69532;37.974;23.708;2023-05-01T11:36:53;22.70;50.40
80216;DHT22;69532;37.974;23.708;2023-05-01T11:39:19;22.80;50.40
80216;DHT22;69532;37.974;23.708;2023-05-01T11:41:46;22.80;50.70
80216;DHT22;69532;37.974;23.708;2023-05-01T11:44:14;22.70;50.30
80216;DHT22;69532;37.974;23.708;2023-05-01T11:46:41;22.70;50.40
80216;DHT22;69532;37.974;23.708;2023-05-01T11:49:07;22.80;50.40
80216;DHT22;69532;37.974;23.708;2023-05-01T11:51:34;22.80;50.50
80216;DHT22;69532;37.974;23.708;2023-05-01T11:54:07;22.70;50.30
80216;DHT22;69532;37.974;23.708;2023-05-01T11:56:34;22.70;50.90
80216;DHT22;69532;37.974;23.708;2023-05-01T11:59:11;22.70;50.40
80216;DHT22;69532;37.974;23.708;2023-05-01T12:01:41;22.80;50.40
80216;DHT22;69532;37.974;23.708;2023-05-01T12:04:09;22.80;50.10
80216;DHT22;69532;37.974;23.708;2023-05-01T12:06:36;22.80;50.00
80216;DHT22;69532;37.974;23.708;2023-05-01T12:09:05;22.80;49.80
80216;DHT22;69532;37.974;23.708;2023-05-01T12:11:33;22.80;49.20
80216;DHT22;69532;37.974;23.708;2023-05-01T12:13:59;22.80;48.20
80216;DHT22;69532;37.974;23.708;2023-05-01T12:16:25;22.80;48.10
80216;DHT22;69532;37.974;23.708;2023-05-01T12:18:52;22.80;47.90
80216;DHT22;69532;37.974;23.708;2023-05-01T12:21:18;22.80;46.20
80216;DHT22;69532;37.974;23.708;2023-05-01T12:23:44;22.90;48.20
80216;DHT22;69532;37.974;23.708;2023-05-01T12:26:23;22.90;47.40
80216;DHT22;69532;37.974;23.708;2023-05-01T12:29:00;22.90;47.00
80216;DHT22;69532;37.974;23.708;2023-05-01T12:31:27;22.90;46.80
80216;DHT22;69532;37.974;23.708;2023-05-01T12:34:01;22.90;46.70
80216;DHT22;69532;37.974;23.708;2023-05-01T12:36:33;22.90;45.20
80216;DHT22;69532;37.974;23.708;2023-05-01T12:39:05;23.00;45.60
80216;DHT22;69532;37.974;23.708;2023-05-01T12:41:43;23.00;45.20
80216;DHT22;69532;37.974;23.708;2023-05-01T12:46:44;23.00;44.60
80216;DHT22;69532;37.974;23.708;2023-05-01T12:49:18;22.90;44.10
80216;DHT22;69532;37.974;23.708;2023-05-01T12:51:48;22.90;43.20
80216;DHT22;69532;37.974;23.708;2023-05-01T12:54:22;22.90;42.70
80216;DHT22;69532;37.974;23.708;2023-05-01T12:56:49;22.90;42.80
80216;DHT22;69532;37.974;23.708;2023-05-01T13:01:46;22.90;42.60
80216;DHT22;69532;37.974;23.708;2023-05-01T13:04:19;22.90;42.30
80216;DHT22;69532;37.974;23.708;2023-05-01T13:06:45;23.00;42.10
80216;DHT22;69532;37.974;23.708;2023-05-01T13:09:11;23.00;41.80
80216;DHT22;69532;37.974;23.708;2023-05-01T13:11:37;23.00;41.30
80216;DHT22;69532;37.974;23.708;2023-05-01T13:14:07;23.00;41.20
80216;DHT22;69532;37.974;23.708;2023-05-01T13:16:33;23.00;40.60
80216;DHT22;69532;37.974;23.708;2023-05-01T13:18:59;23.00;40.50
80216;DHT22;69532;37.974;23.708;2023-05-01T13:21:25;23.00;41.00
80216;DHT22;69532;37.974;23.708;2023-05-01T13:23:53;23.00;40.60
80216;DHT22;69532;37.974;23.708;2023-05-01T13:26:30;23.00;40.50
80216;DHT22;69532;37.974;23.708;2023-05-01T13:29:00;23.00;40.40
80216;DHT22;69532;37.974;23.708;2023-05-01T13:31:28;23.00;40.20
80216;DHT22;69532;37.974;23.708;2023-05-01T13:33:55;23.00;40.30
80216;DHT22;69532;37.974;23.708;2023-05-01T13:36:22;23.00;40.10
80216;DHT22;69532;37.974;23.708;2023-05-01T13:38:49;23.00;40.20
80216;DHT22;69532;37.974;23.708;2023-05-01T13:41:20;23.10;40.20
80216;DHT22;69532;37.974;23.708;2023-05-01T13:43:47;23.10;40.00
80216;DHT22;69532;37.974;23.708;2023-05-01T13:46:14;23.00;40.00
80216;DHT22;69532;37.974;23.708;2023-05-01T13:48:40;23.00;40.00
80216;DHT22;69532;37.974;23.708;2023-05-01T13:51:07;23.00;39.80
80216;DHT22;69532;37.974;23.708;2023-05-01T13:53:34;23.00;39.80
80216;DHT22;69532;37.974;23.708;2023-05-01T13:56:03;23.10;39.80
80216;DHT22;69532;37.974;23.708;2023-05-01T13:58:30;23.10;39.80
80216;DHT22;69532;37.974;23.708;2023-05-01T14:00:56;23.00;39.60
80216;DHT22;69532;37.974;23.708;2023-05-01T14:03:22;23.00;39.60
80216;DHT22;69532;37.974;23.708;2023-05-01T14:05:48;23.10;39.60
80216;DHT22;69532;37.974;23.708;2023-05-01T14:08:14;23.10;39.60
80216;DHT22;69532;37.974;23.708;2023-05-01T14:10:40;23.10;39.60
80216;DHT22;69532;37.974;23.708;2023-05-01T14:13:06;23.10;39.80
80216;DHT22;69532;37.974;23.708;2023-05-01T14:15:35;23.10;39.80
80216;DHT22;69532;37.974;23.708;2023-05-01T14:18:04;23.10;40.00
80216;DHT22;69532;37.974;23.708;2023-05-01T14:20:31;23.10;40.30
80216;DHT22;69532;37.974;23.708;2023-05-01T14:22:58;23.10;40.40
80216;DHT22;69532;37.974;23.708;2023-05-01T14:25:31;23.10;40.40
80216;DHT22;69532;37.974;23.708;2023-05-01T14:28:00;23.10;40.60
80216;DHT22;69532;37.974;23.708;2023-05-01T14:30:34;23.10;41.00
80216;DHT22;69532;37.974;23.708;2023-05-01T14:33:20;23.10;41.10
80216;DHT22;69532;37.974;23.708;2023-05-01T14:35:51;23.10;41.20
80216;DHT22;69532;37.974;23.708;2023-05-01T14:38:18;23.00;41.30
80216;DHT22;69532;37.974;23.708;2023-05-01T14:40:44;23.10;41.60
80216;DHT22;69532;37.974;23.708;2023-05-01T14:43:19;23.00;41.70
80216;DHT22;69532;37.974;23.708;2023-05-01T14:45:46;23.10;42.00
80216;DHT22;69532;37.974;23.708;2023-05-01T14:48:22;23.00;41.90
80216;DHT22;69532;37.974;23.708;2023-05-01T14:50:48;23.00;42.00
80216;DHT22;69532;37.974;23.708;2023-05-01T14:53:14;23.00;42.20
80216;DHT22;69532;37.974;23.708;2023-05-01T14:55:40;23.10;42.50
80216;DHT22;69532;37.974;23.708;2023-05-01T14:58:06;23.10;42.50
80216;DHT22;69532;37.974;23.708;2023-05-01T15:00:32;23.10;42.50
80216;DHT22;69532;37.974;23.708;2023-05-01T15:02:58;23.00;42.60
80216;DHT22;69532;37.974;23.708;2023-05-01T15:05:24;23.10;42.60
80216;DHT22;69532;37.974;23.708;2023-05-01T15:07:54;23.10;42.60
80216;DHT22;69532;37.974;23.708;2023-05-01T15:10:25;23.00;42.60
80216;DHT22;69532;37.974;23.708;2023-05-01T15:12:51;23.10;42.80
80216;DHT22;69532;37.974;23.708;2023-05-01T15:15:17;23.10;43.10
80216;DHT22;69532;37.974;23.708;2023-05-01T15:17:43;23.00;43.10
80216;DHT22;69532;37.974;23.708;2023-05-01T15:20:10;23.10;43.10
80216;DHT22;69532;37.974;23.708;2023-05-01T15:22:36;23.00;43.00
80216;DHT22;69532;37.974;23.708;2023-05-01T15:25:02;23.00;43.10
80216;DHT22;69532;37.974;23.708;2023-05-01T15:27:28;23.00;43.00
80216;DHT22;69532;37.974;23.708;2023-05-01T15:29:53;23.00;42.60
80216;DHT22;69532;37.974;23.708;2023-05-01T15:32:19;23.00;42.90
80216;DHT22;69532;37.974;23.708;2023-05-01T15:34:45;23.00;42.40
80216;DHT22;69532;37.974;23.708;2023-05-01T15:37:10;23.00;42.60
80216;DHT22;69532;37.974;23.708;2023-05-01T15:39:36;23.10;42.40
80216;DHT22;69532;37.974;23.708;2023-05-01T15:42:04;23.00;42.20
80216;DHT22;69532;37.974;23.708;2023-05-01T15:44:30;23.10;42.30
80216;DHT22;69532;37.974;23.708;2023-05-01T15:46:56;23.00;41.80
80216;DHT22;69532;37.974;23.708;2023-05-01T15:49:21;23.00;42.10
80216;DHT22;69532;37.974;23.708;2023-05-01T15:51:47;23.00;41.70
80216;DHT22;69532;37.974;23.708;2023-05-01T15:54:13;23.00;41.20
80216;DHT22;69532;37.974;23.708;2023-05-01T15:56:39;23.10;41.60
80216;DHT22;69532;37.974;23.708;2023-05-01T15:59:06;23.10;41.70
80216;DHT22;69532;37.974;23.708;2023-05-01T16:01:33;23.10;40.80
80216;DHT22;69532;37.974;23.708;2023-05-01T16:03:59;23.10;41.50
80216;DHT22;69532;37.974;23.708;2023-05-01T16:06:27;23.10;41.20